Time;durP1;ratioP1;P1;durP2;ratioP2;P2;SDS_P1;SDS_P2;PMS_P1;PMS_P2;Temp;Humidity;BMP_temperature;BMP_pressure;BME280_temperature;BME280_humidity;BME280_pressure;Samples;Min_cycle;Max_cycle;Signal;HPM_P1;HPM_P2
2022/03/15 00:02:01;;;;;;;;;;;;;;;7.88;59.17;102393.34;5034585;28;20024;-75
2022/03/15 00:04:26;;;;;;;;;;;;;;;7.86;59.66;102391.56;5073638;28;19921;-75
2022/03/15 00:06:51;;;;;;;;;;;;;;;7.62;59.57;102384.28;5054511;28;20007;-80
2022/03/15 00:09:17;;;;;;;;;;;;;;;7.91;59.52;102383.03;5047027;28;19925;-74
2022/03/15 00:11:42;;;;;;;;;;;;;;;7.61;60.66;102383.41;5055480;28;20426;-75
2022/03/15 00:14:09;;;;;;;;;;;;;;;7.76;60.15;102382.78;5065965;28;19939;-79
2022/03/15 00:16:34;;;;;;;;;;;;;;;7.82;59.54;102377.72;5054431;28;19925;-79
2022/03/15 00:19:00;;;;;;;;;;;;;;;7.94;59.50;102377.91;5039641;28;20005;-81
2022/03/15 00:21:25;;;;;;;;;;;;;;;7.94;58.97;102372.72;5060453;28;19925;-81
2022/03/15 00:23:51;;;;;;;;;;;;;;;7.86;59.95;102373.47;5056415;28;20050;-78
2022/03/15 00:26:16;;;;;;;;;;;;;;;7.91;59.62;102371.84;5063093;28;19916;-79
2022/03/15 00:28:42;;;;;;;;;;;;;;;7.85;59.38;102369.16;5055377;28;19920;-79
2022/03/15 00:31:07;;;;;;;;;;;;;;;7.84;59.98;102364.81;5034119;28;20405;-79
2022/03/15 00:33:32;;;;;;;;;;;;;;;7.86;59.86;102360.53;5054590;28;19940;-81
2022/03/15 00:36:00;;;;;;;;;;;;;;;7.87;59.36;102352.81;5056866;28;19921;-81
2022/03/15 00:38:26;;;;;;;;;;;;;;;7.92;59.91;102352.84;5035444;28;20324;-81
2022/03/15 00:40:52;;;;;;;;;;;;;;;7.78;60.24;102350.06;5045881;28;19925;-81
2022/03/15 00:43:17;;;;;;;;;;;;;;;7.79;59.58;102359.56;5061941;28;19921;-80
2022/03/15 00:45:42;;;;;;;;;;;;;;;7.78;59.53;102359.53;5070072;28;19946;-79
2022/03/15 00:48:08;;;;;;;;;;;;;;;7.72;59.48;102359.44;5060637;28;20391;-75
2022/03/15 00:50:39;;;;;;;;;;;;;;;7.68;60.58;102361.97;5064671;28;19924;-75
2022/03/15 00:53:05;;;;;;;;;;;;;;;7.65;60.40;102361.94;5053356;28;19946;-75
2022/03/15 00:55:30;;;;;;;;;;;;;;;7.60;59.77;102360.13;5053188;28;19921;-81
2022/03/15 00:57:55;;;;;;;;;;;;;;;7.80;59.59;102358.72;5050903;28;19928;-80
2022/03/15 01:00:27;;;;;;;;;;;;;;;7.85;59.02;102359.66;5055543;28;19917;-79
2022/03/15 01:02:52;;;;;;;;;;;;;;;7.79;59.53;102369.06;5054030;28;19928;-75
2022/03/15 01:05:18;;;;;;;;;;;;;;;7.74;60.02;102368.09;5055018;28;19916;-81
2022/03/15 01:07:43;;;;;;;;;;;;;;;7.83;60.09;102376.00;5058653;28;19921;-81
2022/03/15 01:10:08;;;;;;;;;;;;;;;7.81;59.79;102369.94;5051678;28;20015;-81
2022/03/15 01:12:34;;;;;;;;;;;;;;;7.81;59.78;102369.94;5053580;28;19924;-75
2022/03/15 01:14:59;;;;;;;;;;;;;;;7.72;59.99;102368.09;5051544;28;20274;-74
2022/03/15 01:17:25;;;;;;;;;;;;;;;7.72;60.36;102362.91;5054430;28;19921;-75
2022/03/15 01:19:50;;;;;;;;;;;;;;;7.81;60.16;102363.06;5044592;28;19928;-75
2022/03/15 01:22:15;;;;;;;;;;;;;;;7.85;59.32;102362.22;5056291;28;19944;-75
2022/03/15 01:24:41;;;;;;;;;;;;;;;7.79;59.66;102358.72;5063568;28;19921;-77
2022/03/15 01:27:06;;;;;;;;;;;;;;;7.86;60.07;102360.53;5054866;28;19924;-78
2022/03/15 01:29:31;;;;;;;;;;;;;;;7.89;59.04;102363.16;5049753;28;19928;-79
2022/03/15 01:31:59;;;;;;;;;;;;;;;7.77;59.18;102366.44;5052461;28;19917;-79
2022/03/15 01:34:24;;;;;;;;;;;;;;;7.63;59.92;102368.81;5049971;28;19924;-78
2022/03/15 01:36:50;;;;;;;;;;;;;;;7.74;59.76;102370.69;5041480;28;19970;-78
2022/03/15 01:39:15;;;;;;;;;;;;;;;7.38;60.43;102368.34;5055422;28;19951;-79
2022/03/15 01:41:42;;;;;;;;;;;;;;;7.50;60.93;102369.44;5052745;28;19932;-75
2022/03/15 01:44:14;;;;;;;;;;;;;;;7.76;60.22;102369.00;5055204;28;19970;-81
2022/03/15 01:46:40;;;;;;;;;;;;;;;7.67;60.52;102362.81;5056862;28;20434;-81
2022/03/15 01:49:05;;;;;;;;;;;;;;;7.76;60.30;102356.06;5028995;28;20019;-81
2022/03/15 01:51:30;;;;;;;;;;;;;;;7.72;60.77;102357.72;5056232;28;20305;-81
2022/03/15 01:53:56;;;;;;;;;;;;;;;7.83;60.56;102358.75;5047823;28;19953;-81
2022/03/15 01:56:21;;;;;;;;;;;;;;;7.76;60.82;102361.25;5060675;28;19928;-75
2022/03/15 01:58:47;;;;;;;;;;;;;;;7.51;60.89;102355.66;5055686;28;19920;-81
2022/03/15 02:01:13;;;;;;;;;;;;;;;7.66;60.28;102358.50;5050235;28;19943;-81
2022/03/15 02:03:38;;;;;;;;;;;;;;;7.67;60.59;102346.44;5051526;28;20412;-78
2022/03/15 02:06:05;;;;;;;;;;;;;;;7.79;60.21;102340.59;5050832;28;19923;-78
2022/03/15 02:08:31;;;;;;;;;;;;;;;7.63;59.87;102340.34;5052980;28;19924;-79
2022/03/15 02:10:56;;;;;;;;;;;;;;;7.74;60.06;102340.50;5044248;28;19921;-74
2022/03/15 02:13:21;;;;;;;;;;;;;;;7.73;59.35;102338.78;5054987;28;19921;-75
2022/03/15 02:15:47;;;;;;;;;;;;;;;7.70;59.82;102342.16;5047683;28;19917;-74
2022/03/15 02:18:12;;;;;;;;;;;;;;;7.59;59.76;102342.84;5060168;28;19943;-75
2022/03/15 02:20:38;;;;;;;;;;;;;;;7.53;60.23;102348.78;5066037;28;19975;-78
2022/03/15 02:23:03;;;;;;;;;;;;;;;7.74;59.99;102337.06;5055710;28;20301;-78
2022/03/15 02:25:28;;;;;;;;;;;;;;;7.38;60.08;102339.91;5055680;28;19924;-75
2022/03/15 02:27:54;;;;;;;;;;;;;;;7.42;60.92;102345.16;5054704;28;19927;-80
2022/03/15 02:30:21;;;;;;;;;;;;;;;7.66;59.60;102348.16;5052453;28;19917;-78
2022/03/15 02:32:47;;;;;;;;;;;;;;;7.61;59.71;102339.44;5032931;28;20007;-78
2022/03/15 02:35:13;;;;;;;;;;;;;;;7.75;59.43;102334.50;5056720;28;19929;-81
2022/03/15 02:37:39;;;;;;;;;;;;;;;7.72;59.81;102333.56;5056464;28;19970;-79
2022/03/15 02:40:04;;;;;;;;;;;;;;;7.75;59.42;102331.03;5047049;28;19948;-81
2022/03/15 02:42:29;;;;;;;;;;;;;;;7.61;59.54;102321.34;5048498;28;19924;-81
2022/03/15 02:44:55;;;;;;;;;;;;;;;7.51;60.27;102306.53;5046067;28;20458;-81
2022/03/15 02:47:20;;;;;;;;;;;;;;;7.62;59.60;102293.75;5061042;28;19917;-74
2022/03/15 02:49:45;;;;;;;;;;;;;;;7.69;59.26;102295.59;5058652;28;19920;-74
2022/03/15 02:52:11;;;;;;;;;;;;;;;7.66;59.82;102300.72;5047179;28;19921;-74
2022/03/15 02:54:41;;;;;;;;;;;;;;;7.78;59.30;102300.03;5055081;28;20373;-75
2022/03/15 02:57:08;;;;;;;;;;;;;;;7.76;59.32;102294.84;5052389;28;19944;-75
2022/03/15 02:59:33;;;;;;;;;;;;;;;7.72;59.15;102292.19;5058143;28;20272;-75
2022/03/15 03:02:00;;;;;;;;;;;;;;;7.66;59.04;102288.69;5050563;28;19939;-80
2022/03/15 03:04:26;;;;;;;;;;;;;;;7.68;59.58;102292.16;5059726;28;19917;-80
2022/03/15 03:06:53;;;;;;;;;;;;;;;7.75;58.84;102289.66;5047714;28;20011;-79
2022/03/15 03:09:18;;;;;;;;;;;;;;;7.62;59.53;102292.06;5053649;28;19916;-79
2022/03/15 03:11:43;;;;;;;;;;;;;;;7.63;59.15;102282.59;5049166;28;20452;-79
2022/03/15 03:14:12;;;;;;;;;;;;;;;7.64;59.77;102286.91;5053522;28;20405;-80
2022/03/15 03:16:39;;;;;;;;;;;;;;;7.67;59.06;102285.22;5049077;28;19967;-81
2022/03/15 03:19:08;;;;;;;;;;;;;;;7.65;58.51;102284.34;5062914;28;20376;-80
2022/03/15 03:21:36;;;;;;;;;;;;;;;7.54;59.39;102282.44;5052573;28;20007;-78
2022/03/15 03:24:05;;;;;;;;;;;;;;;7.36;59.74;102277.84;5034877;28;19924;-74
2022/03/15 03:26:32;;;;;;;;;;;;;;;7.60;59.26;102279.94;5049154;28;19924;-74
2022/03/15 03:28:58;;;;;;;;;;;;;;;7.43;59.90;102282.28;5051354;28;19978;-75
2022/03/15 03:31:23;;;;;;;;;;;;;;;7.47;60.67;102278.00;5035718;28;19921;-74
2022/03/15 03:33:49;;;;;;;;;;;;;;;7.42;59.60;102279.66;5049924;28;20372;-75
2022/03/15 03:36:14;;;;;;;;;;;;;;;7.48;60.36;102277.16;5055057;28;19917;-75
2022/03/15 03:38:41;;;;;;;;;;;;;;;7.49;59.66;102278.91;5054155;28;19951;-76
2022/03/15 03:41:07;;;;;;;;;;;;;;;7.14;60.80;102280.91;5046714;28;19921;-81
2022/03/15 03:43:32;;;;;;;;;;;;;;;7.42;60.00;102275.38;5052626;28;19971;-80
2022/03/15 03:45:58;;;;;;;;;;;;;;;7.11;60.43;102278.28;5053816;28;19990;-78
2022/03/15 03:48:24;;;;;;;;;;;;;;;7.39;60.33;102269.28;5055892;28;19932;-81
2022/03/15 03:50:50;;;;;;;;;;;;;;;7.58;59.39;102266.97;5054369;28;19917;-75
2022/03/15 03:53:16;;;;;;;;;;;;;;;7.62;59.88;102262.72;5054000;28;19928;-77
2022/03/15 03:55:41;;;;;;;;;;;;;;;7.62;59.54;102262.72;5047482;28;19955;-80
2022/03/15 03:58:06;;;;;;;;;;;;;;;7.49;59.69;102268.59;5052898;28;19928;-79
2022/03/15 04:00:31;;;;;;;;;;;;;;;7.46;59.63;102258.19;5054635;28;19928;-79
2022/03/15 04:03:00;;;;;;;;;;;;;;;7.67;59.40;102261.94;5052634;28;19921;-74
2022/03/15 04:05:26;;;;;;;;;;;;;;;7.56;59.89;102263.50;5053266;28;19916;-81
2022/03/15 04:07:52;;;;;;;;;;;;;;;7.52;59.84;102266.03;5056762;28;20392;-80
2022/03/15 04:10:21;;;;;;;;;;;;;;;7.69;59.39;102259.41;5038906;28;19923;-81
2022/03/15 04:12:47;;;;;;;;;;;;;;;7.45;59.54;102269.38;5059433;28;20404;-79
2022/03/15 04:15:12;;;;;;;;;;;;;;;7.62;59.75;102262.72;5046143;28;19956;-78
2022/03/15 04:17:38;;;;;;;;;;;;;;;7.40;60.30;102268.44;5054458;28;19920;-74
2022/03/15 04:20:03;;;;;;;;;;;;;;;7.12;60.63;102267.97;5051630;28;19921;-74
2022/03/15 04:22:29;;;;;;;;;;;;;;;7.47;60.25;102265.97;5060358;28;19924;-81
2022/03/15 04:24:54;;;;;;;;;;;;;;;7.35;60.88;102262.31;5050149;28;19928;-81
2022/03/15 04:27:19;;;;;;;;;;;;;;;7.56;60.17;102255.75;5054624;28;19947;-80
2022/03/15 04:29:45;;;;;;;;;;;;;;;7.39;60.25;102248.59;5049053;28;20373;-81
2022/03/15 04:32:11;;;;;;;;;;;;;;;7.58;59.78;102250.63;5055711;28;19999;-80
2022/03/15 04:34:36;;;;;;;;;;;;;;;7.61;60.24;102238.59;5048811;28;19940;-78
2022/03/15 04:37:01;;;;;;;;;;;;;;;7.49;60.32;102246.19;5049189;28;20403;-75
2022/03/15 04:39:27;;;;;;;;;;;;;;;7.55;59.67;102250.56;5049478;28;19920;-79
2022/03/15 04:41:52;;;;;;;;;;;;;;;7.64;59.14;102242.94;5054933;28;20440;-78
2022/03/15 04:44:18;;;;;;;;;;;;;;;7.57;59.38;102248.88;5053818;28;19921;-81
2022/03/15 04:46:44;;;;;;;;;;;;;;;7.37;60.21;102247.72;5052331;28;19920;-79
2022/03/15 04:49:09;;;;;;;;;;;;;;;7.57;60.08;102249.75;5051546;28;19924;-79
2022/03/15 04:51:35;;;;;;;;;;;;;;;7.49;61.24;102247.91;5076974;28;19939;-78
2022/03/15 04:54:00;;;;;;;;;;;;;;;7.51;60.88;102252.25;5050908;28;20457;-74
2022/03/15 04:56:26;;;;;;;;;;;;;;;7.48;60.00;102241.84;5039787;28;19921;-78
2022/03/15 04:58:51;;;;;;;;;;;;;;;7.57;60.01;102242.00;5050183;28;19920;-80
2022/03/15 05:01:17;;;;;;;;;;;;;;;7.62;59.61;102236.88;5057458;28;20024;-81
2022/03/15 05:03:42;;;;;;;;;;;;;;;7.51;60.50;102235.84;5055192;28;20381;-74
2022/03/15 05:06:07;;;;;;;;;;;;;;;7.43;60.16;102240.91;5046262;28;20378;-78
2022/03/15 05:08:33;;;;;;;;;;;;;;;7.54;60.47;102229.00;5049564;28;19967;-78
2022/03/15 05:11:07;;;;;;;;;;;;;;;7.52;60.12;102232.44;5033795;28;19920;-75
2022/03/15 05:13:40;;;;;;;;;;;;;;;7.52;60.71;102229.84;5054770;28;19921;-74
2022/03/15 05:16:10;;;;;;;;;;;;;;;7.33;60.70;102230.41;5052380;28;19987;-78
2022/03/15 05:18:36;;;;;;;;;;;;;;;7.46;60.32;102224.59;5055399;28;20359;-79
2022/03/15 05:21:05;;;;;;;;;;;;;;;7.51;61.01;102217.75;5052169;28;19921;-79
2022/03/15 05:23:30;;;;;;;;;;;;;;;7.52;60.63;102217.75;5058178;28;19920;-81
2022/03/15 05:25:56;;;;;;;;;;;;;;;7.48;60.68;102218.56;5048413;28;20520;-79
2022/03/15 05:28:21;;;;;;;;;;;;;;;7.49;60.58;102214.28;5065546;28;19921;-78
2022/03/15 05:30:46;;;;;;;;;;;;;;;7.57;59.96;102213.53;5055301;28;19917;-78
2022/03/15 05:33:12;;;;;;;;;;;;;;;7.46;61.11;102212.53;5061413;28;19974;-78
2022/03/15 05:35:37;;;;;;;;;;;;;;;7.45;60.80;102209.91;5044242;28;20450;-78
2022/03/15 05:38:03;;;;;;;;;;;;;;;7.53;60.31;102209.16;5053111;28;20347;-78
2022/03/15 05:40:28;;;;;;;;;;;;;;;7.54;60.73;102207.44;5047342;28;19927;-79
2022/03/15 05:42:53;;;;;;;;;;;;;;;7.48;61.38;102205.66;5045523;28;19924;-81
2022/03/15 05:45:18;;;;;;;;;;;;;;;7.53;60.84;102203.13;5060866;28;19916;-81
2022/03/15 05:47:44;;;;;;;;;;;;;;;7.53;60.22;102201.41;5062947;28;19933;-81
2022/03/15 05:50:09;;;;;;;;;;;;;;;7.55;61.52;102197.13;5052054;28;20323;-81
2022/03/15 05:52:34;;;;;;;;;;;;;;;7.50;60.75;102193.59;5032652;28;19974;-81
2022/03/15 05:55:00;;;;;;;;;;;;;;;7.66;60.07;102198.16;5059118;28;20304;-79
2022/03/15 05:57:25;;;;;;;;;;;;;;;7.42;60.67;102191.75;5050400;28;19912;-79
2022/03/15 05:59:50;;;;;;;;;;;;;;;7.52;61.29;102188.47;5071604;28;20288;-81
2022/03/15 06:02:16;;;;;;;;;;;;;;;7.61;60.85;102192.03;5042397;28;19924;-81
2022/03/15 06:04:41;;;;;;;;;;;;;;;7.73;60.82;102183.59;5052889;28;19921;-81
2022/03/15 06:07:07;;;;;;;;;;;;;;;7.61;61.27;102189.44;5048214;28;20340;-81
2022/03/15 06:09:32;;;;;;;;;;;;;;;7.59;61.37;102185.09;5050233;28;20416;-81
2022/03/15 06:12:00;;;;;;;;;;;;;;;7.64;61.67;102183.47;5047776;28;20441;-78
2022/03/15 06:14:25;;;;;;;;;;;;;;;7.75;61.25;102181.88;5059648;28;20304;-80
2022/03/15 06:16:51;;;;;;;;;;;;;;;7.63;61.45;102181.72;5057894;28;19924;-79
2022/03/15 06:19:17;;;;;;;;;;;;;;;7.81;60.46;102178.50;5055098;28;19950;-81
2022/03/15 06:21:42;;;;;;;;;;;;;;;7.88;61.07;102178.59;5056990;28;19924;-75
2022/03/15 06:24:08;;;;;;;;;;;;;;;7.76;61.66;102175.84;5056613;28;20293;-81
2022/03/15 06:26:34;;;;;;;;;;;;;;;7.71;61.63;102169.75;5053196;28;19959;-81
2022/03/15 06:29:02;;;;;;;;;;;;;;;7.56;62.19;102169.53;5049865;28;19921;-81
2022/03/15 06:31:28;;;;;;;;;;;;;;;7.69;61.75;102166.28;5051592;28;19944;-78
2022/03/15 06:33:53;;;;;;;;;;;;;;;7.78;61.17;102169.00;5052720;28;20337;-77
2022/03/15 06:36:19;;;;;;;;;;;;;;;7.88;61.09;102164.81;5036539;28;19920;-75
2022/03/15 06:38:44;;;;;;;;;;;;;;;7.90;60.83;102157.94;5055357;28;19924;-75
2022/03/15 06:41:12;;;;;;;;;;;;;;;7.99;60.97;102156.31;5056224;28;19921;-79
2022/03/15 06:43:39;;;;;;;;;;;;;;;7.91;60.33;102152.75;5062533;28;19921;-78
2022/03/15 06:46:05;;;;;;;;;;;;;;;7.99;60.65;102153.75;5048752;28;19925;-78
2022/03/15 06:48:30;;;;;;;;;;;;;;;7.81;60.74;102157.81;5065809;28;20039;-81
2022/03/15 06:50:55;;;;;;;;;;;;;;;7.71;61.23;102159.41;5061023;28;19921;-75
2022/03/15 06:53:21;;;;;;;;;;;;;;;7.85;60.54;102155.25;5049215;28;19937;-78
2022/03/15 06:55:46;;;;;;;;;;;;;;;7.85;61.09;102151.84;5048113;28;20320;-81
2022/03/15 06:58:11;;;;;;;;;;;;;;;7.84;61.25;102156.13;5053925;28;20338;-81
2022/03/15 07:00:37;;;;;;;;;;;;;;;7.81;61.84;102150.06;5047519;28;19924;-81
2022/03/15 07:03:02;;;;;;;;;;;;;;;7.92;61.15;102151.03;5050297;28;20365;-79
2022/03/15 07:05:28;;;;;;;;;;;;;;;7.99;61.21;102143.38;5048553;28;19928;-81
2022/03/15 07:07:53;;;;;;;;;;;;;;;7.91;61.86;102141.56;5032886;28;19967;-78
2022/03/15 07:10:20;;;;;;;;;;;;;;;7.83;60.87;102145.75;5050709;28;19929;-75
2022/03/15 07:12:47;;;;;;;;;;;;;;;7.98;61.14;102141.63;5053272;28;19927;-81
2022/03/15 07:15:12;;;;;;;;;;;;;;;7.91;61.23;102146.75;5032790;28;19913;-78
2022/03/15 07:17:38;;;;;;;;;;;;;;;7.78;61.99;102144.84;5055664;28;19921;-81
2022/03/15 07:20:03;;;;;;;;;;;;;;;7.98;61.52;102138.19;5056072;28;20356;-81
2022/03/15 07:22:29;;;;;;;;;;;;;;;7.96;61.71;102142.47;5052387;28;19928;-75
2022/03/15 07:24:54;;;;;;;;;;;;;;;7.98;61.11;102143.34;5065270;28;20334;-81
2022/03/15 07:27:20;;;;;;;;;;;;;;;7.94;61.77;102146.78;5057483;28;19925;-81
2022/03/15 07:29:46;;;;;;;;;;;;;;;7.99;62.01;102148.56;5024062;28;20602;-81
2022/03/15 07:32:14;;;;;;;;;;;;;;;8.19;61.55;102147.06;5052005;28;19935;-78
2022/03/15 07:34:40;;;;;;;;;;;;;;;8.06;62.43;102142.59;5043429;28;19973;-78
2022/03/15 07:37:05;;;;;;;;;;;;;;;8.06;61.93;102141.72;5059571;28;20355;-78
2022/03/15 07:39:31;;;;;;;;;;;;;;;8.14;62.31;102140.09;5058966;28;20574;-81
2022/03/15 07:41:57;;;;;;;;;;;;;;;8.13;62.31;102139.22;5051534;28;19932;-81
2022/03/15 07:44:23;;;;;;;;;;;;;;;8.14;61.92;102138.38;5051751;28;19931;-81
2022/03/15 07:46:48;;;;;;;;;;;;;;;8.16;62.13;102139.25;5054365;28;19924;-78
2022/03/15 07:49:18;;;;;;;;;;;;;;;8.12;62.20;102134.00;5059077;28;19927;-76
2022/03/15 07:51:44;;;;;;;;;;;;;;;8.18;62.16;102126.31;5050280;28;19967;-76
2022/03/15 07:54:09;;;;;;;;;;;;;;;8.20;62.31;102124.63;5053868;28;19913;-76
2022/03/15 07:56:35;;;;;;;;;;;;;;;8.25;61.29;102125.53;5033648;28;20306;-76
2022/03/15 07:59:00;;;;;;;;;;;;;;;8.36;61.60;102123.94;5054895;28;19950;-81
2022/03/15 08:01:25;;;;;;;;;;;;;;;8.16;62.53;102115.97;5057052;28;19936;-81
2022/03/15 08:03:53;;;;;;;;;;;;;;;8.28;63.09;102112.63;5052214;28;19956;-78
2022/03/15 08:06:18;;;;;;;;;;;;;;;8.29;62.26;102108.31;5053206;28;19939;-78
2022/03/15 08:08:44;;;;;;;;;;;;;;;8.40;61.71;102109.31;5049519;28;19921;-75
2022/03/15 08:11:09;;;;;;;;;;;;;;;8.28;62.27;102115.22;5053271;28;19971;-76
2022/03/15 08:13:34;;;;;;;;;;;;;;;8.29;62.42;102106.59;5052604;28;20304;-76
2022/03/15 08:16:01;;;;;;;;;;;;;;;8.43;62.19;102109.34;5053484;28;19966;-81
2022/03/15 08:18:26;;;;;;;;;;;;;;;8.41;62.23;102100.72;5065032;28;20419;-81
2022/03/15 08:20:53;;;;;;;;;;;;;;;8.30;62.73;102100.56;5068318;28;19928;-81
2022/03/15 08:23:20;;;;;;;;;;;;;;;8.42;61.99;102105.00;5056011;28;19927;-81
2022/03/15 08:25:45;;;;;;;;;;;;;;;8.48;61.55;102097.28;5052435;28;19929;-79
2022/03/15 08:28:11;;;;;;;;;;;;;;;8.48;62.17;102090.41;5042213;28;20004;-78
2022/03/15 08:30:36;;;;;;;;;;;;;;;8.44;62.27;102099.03;5052453;28;20039;-78
2022/03/15 08:33:01;;;;;;;;;;;;;;;8.54;63.22;102090.47;5053018;28;19917;-78
2022/03/15 08:35:27;;;;;;;;;;;;;;;8.61;62.02;102091.38;5054720;28;20686;-82
2022/03/15 08:37:53;;;;;;;;;;;;;;;8.61;61.67;102078.44;5056042;28;19928;-82
2022/03/15 08:40:19;;;;;;;;;;;;;;;8.64;61.33;102083.63;5052495;28;19923;-82
2022/03/15 08:42:45;;;;;;;;;;;;;;;8.57;62.05;102080.13;5051006;28;19924;-82
2022/03/15 08:45:10;;;;;;;;;;;;;;;8.75;61.62;102075.09;5050870;28;19921;-81
2022/03/15 08:47:36;;;;;;;;;;;;;;;8.70;61.16;102071.59;5049894;28;19925;-81
2022/03/15 08:50:02;;;;;;;;;;;;;;;8.77;61.49;102075.94;5059981;28;19925;-76
2022/03/15 08:52:27;;;;;;;;;;;;;;;8.67;61.22;102070.72;5050760;28;19964;-76
2022/03/15 08:54:52;;;;;;;;;;;;;;;8.56;61.27;102073.19;5036977;28;20573;-76
2022/03/15 08:57:17;;;;;;;;;;;;;;;8.58;61.55;102078.41;5058973;28;19928;-78
2022/03/15 08:59:43;;;;;;;;;;;;;;;8.67;60.66;102071.56;5057668;28;20453;-78
2022/03/15 09:02:12;;;;;;;;;;;;;;;8.74;61.46;102077.69;5053233;28;19932;-78
2022/03/15 09:04:37;;;;;;;;;;;;;;;8.96;59.97;102074.38;5050357;28;20341;-82
2022/03/15 09:07:02;;;;;;;;;;;;;;;8.88;60.73;102070.88;5050406;28;19921;-81
2022/03/15 09:09:28;;;;;;;;;;;;;;;8.72;61.24;102076.78;5054635;28;19927;-81
2022/03/15 09:11:53;;;;;;;;;;;;;;;8.85;61.60;102077.75;5052029;28;19929;-80
2022/03/15 09:14:18;;;;;;;;;;;;;;;8.84;61.51;102073.41;5056206;28;20023;-76
2022/03/15 09:16:44;;;;;;;;;;;;;;;8.98;62.04;102077.81;5059383;28;19956;-76
2022/03/15 09:19:10;;;;;;;;;;;;;;;9.06;61.15;102070.97;5051572;28;20483;-80
2022/03/15 09:21:35;;;;;;;;;;;;;;;9.22;60.30;102059.81;5058642;28;19975;-76
2022/03/15 09:24:01;;;;;;;;;;;;;;;9.10;60.98;102064.06;5050833;28;19966;-76
2022/03/15 09:26:26;;;;;;;;;;;;;;;9.12;60.23;102065.84;5048556;28;20385;-76
2022/03/15 09:28:52;;;;;;;;;;;;;;;9.32;59.76;102061.59;5054399;28;19926;-78
2022/03/15 09:31:20;;;;;;;;;;;;;;;9.18;60.69;102062.41;5054248;28;19917;-76
2022/03/15 09:33:46;;;;;;;;;;;;;;;9.32;60.89;102061.59;5050376;28;19975;-76
2022/03/15 09:36:12;;;;;;;;;;;;;;;9.34;60.97;102061.59;5053205;28;19921;-76
2022/03/15 09:38:37;;;;;;;;;;;;;;;9.35;60.04;102053.84;5051830;28;20439;-78
2022/03/15 09:41:04;;;;;;;;;;;;;;;9.41;60.72;102042.63;5048188;28;19933;-78
2022/03/15 09:43:34;;;;;;;;;;;;;;;9.43;60.41;102051.28;5060020;28;19964;-78
2022/03/15 09:46:00;;;;;;;;;;;;;;;9.44;60.83;102047.81;5049571;28;20471;-78
2022/03/15 09:48:27;;;;;;;;;;;;;;;9.56;60.66;102045.28;5053543;28;20601;-79
2022/03/15 09:50:52;;;;;;;;;;;;;;;9.50;60.23;102039.19;5053766;28;20015;-76
2022/03/15 09:53:19;;;;;;;;;;;;;;;9.56;60.17;102047.88;5047475;28;20329;-77
2022/03/15 09:55:48;;;;;;;;;;;;;;;9.61;59.89;102045.28;5042757;28;20023;-77
2022/03/15 09:58:23;;;;;;;;;;;;;;;9.38;61.46;102044.34;5064200;28;19981;-76
2022/03/15 10:00:50;;;;;;;;;;;;;;;9.41;61.75;102044.34;5061598;28;19920;-82
2022/03/15 10:03:16;;;;;;;;;;;;;;;9.56;61.05;102037.50;5059159;28;20392;-82
2022/03/15 10:05:42;;;;;;;;;;;;;;;9.47;61.78;102036.59;5058817;28;19967;-82
2022/03/15 10:08:07;;;;;;;;;;;;;;;9.50;62.72;102042.66;5057893;28;19968;-82
2022/03/15 10:10:33;;;;;;;;;;;;;;;9.45;62.32;102039.19;5035145;28;19924;-82
2022/03/15 10:12:58;;;;;;;;;;;;;;;9.48;62.44;102028.84;5057164;28;20356;-79
2022/03/15 10:15:25;;;;;;;;;;;;;;;9.58;62.25;102032.31;5050575;28;19920;-79
2022/03/15 10:17:53;;;;;;;;;;;;;;;9.49;62.10;102029.66;5059835;28;20143;-77
2022/03/15 10:20:19;;;;;;;;;;;;;;;9.55;60.84;102022.78;5045108;28;19944;-76
2022/03/15 10:22:52;;;;;;;;;;;;;;;9.60;63.48;102025.41;5050752;28;19932;-82
2022/03/15 10:25:21;;;;;;;;;;;;;;;9.63;63.12;102025.41;5057146;28;20421;-82
2022/03/15 10:27:54;;;;;;;;;;;;;;;9.67;62.81;102020.22;5048143;28;20306;-81
2022/03/15 10:30:19;;;;;;;;;;;;;;;9.74;62.33;102016.81;5048607;28;20293;-82
2022/03/15 10:32:46;;;;;;;;;;;;;;;9.66;63.28;102017.66;5051066;28;19921;-76
2022/03/15 10:35:12;;;;;;;;;;;;;;;9.62;63.92;102011.56;5056202;28;19969;-76
2022/03/15 10:37:39;;;;;;;;;;;;;;;9.74;63.79;102011.59;5050840;28;19928;-77
2022/03/15 10:40:05;;;;;;;;;;;;;;;9.71;64.13;102008.13;5052865;28;20363;-77
2022/03/15 10:42:31;;;;;;;;;;;;;;;9.74;63.76;102015.94;5050122;28;19924;-76
2022/03/15 10:44:57;;;;;;;;;;;;;;;9.72;63.00;102007.28;5046745;28;19920;-81
2022/03/15 10:47:23;;;;;;;;;;;;;;;9.72;62.96;102008.13;5062645;28;20384;-81
2022/03/15 10:49:55;;;;;;;;;;;;;;;9.63;64.49;101995.13;5049367;28;19917;-81
2022/03/15 10:52:33;;;;;;;;;;;;;;;9.87;62.86;101996.91;5053719;28;19943;-76
2022/03/15 10:55:12;;;;;;;;;;;;;;;9.96;62.58;102001.31;5055418;28;20350;-77
2022/03/15 10:57:54;;;;;;;;;;;;;;;9.95;63.66;101989.19;5050414;28;20007;-79
2022/03/15 11:00:26;;;;;;;;;;;;;;;9.76;64.33;101991.72;5049252;28;20011;-79
2022/03/15 11:02:52;;;;;;;;;;;;;;;9.82;64.98;101985.66;5058828;28;19955;-82
2022/03/15 11:05:34;;;;;;;;;;;;;;;9.68;65.25;101984.78;5050796;28;20369;-82
2022/03/15 11:08:10;;;;;;;;;;;;;;;9.63;65.83;101984.75;5044440;28;19921;-81
2022/03/15 11:10:36;;;;;;;;;;;;;;;9.65;65.61;101976.97;5050211;28;19927;-81
2022/03/15 11:13:12;;;;;;;;;;;;;;;9.68;66.02;101979.59;5030528;28;19946;-81
2022/03/15 11:15:40;;;;;;;;;;;;;;;9.50;66.96;101984.72;5047905;28;20336;-82
2022/03/15 11:18:06;;;;;;;;;;;;;;;9.38;66.19;101979.50;5052323;28;19967;-81
2022/03/15 11:20:34;;;;;;;;;;;;;;;9.36;67.27;101982.09;5051841;28;19932;-81
2022/03/15 11:23:00;;;;;;;;;;;;;;;9.35;67.75;101978.63;5050274;28;19929;-77
2022/03/15 11:25:29;;;;;;;;;;;;;;;9.39;67.07;101968.28;5045174;28;20278;-76
2022/03/15 11:27:56;;;;;;;;;;;;;;;9.28;67.57;101965.63;5064032;28;19953;-79
2022/03/15 11:30:21;;;;;;;;;;;;;;;9.46;66.71;101957.03;5030821;28;19944;-81
2022/03/15 11:32:47;;;;;;;;;;;;;;;9.26;67.46;101950.09;5052254;28;20452;-81
2022/03/15 11:35:13;;;;;;;;;;;;;;;9.34;67.30;101940.59;5052311;28;19925;-82
2022/03/15 11:37:40;;;;;;;;;;;;;;;9.26;68.94;101941.44;5048797;28;20070;-82
2022/03/15 11:40:07;;;;;;;;;;;;;;;9.39;68.14;101938.03;5049984;28;20012;-81
2022/03/15 11:42:33;;;;;;;;;;;;;;;9.24;69.50;101936.25;5057223;28;20408;-81
2022/03/15 11:45:25;;;;;;;;;;;;;;;9.20;70.82;101933.63;5057408;28;20463;-76
2022/03/15 11:47:57;;;;;;;;;;;;;;;9.28;69.62;101925.03;5024398;28;19972;-76
2022/03/15 11:50:24;;;;;;;;;;;;;;;9.29;69.00;101918.97;5053474;28;20353;-76
2022/03/15 11:53:08;;;;;;;;;;;;;;;9.24;69.90;101910.34;5053114;28;19920;-76
2022/03/15 11:55:33;;;;;;;;;;;;;;;9.25;69.50;101906.00;5046253;28;19931;-79
2022/03/15 11:58:03;;;;;;;;;;;;;;;9.23;70.14;101903.41;5055871;28;19920;-76
2022/03/15 12:00:37;;;;;;;;;;;;;;;9.28;70.67;101895.63;5062207;28;20392;-81
2022/03/15 12:03:06;;;;;;;;;;;;;;;9.33;70.50;101892.19;5040852;28;19939;-81
2022/03/15 12:05:40;;;;;;;;;;;;;;;9.33;71.05;101899.13;5042571;28;19949;-82
2022/03/15 12:08:11;;;;;;;;;;;;;;;9.24;71.28;101892.19;5053099;28;19921;-76
2022/03/15 12:10:38;;;;;;;;;;;;;;;9.25;70.82;101887.84;5066550;28;19958;-76
2022/03/15 12:13:05;;;;;;;;;;;;;;;9.28;71.42;101893.03;5064543;28;20344;-79
2022/03/15 12:15:35;;;;;;;;;;;;;;;9.40;70.29;101879.22;5053366;28;19957;-76
2022/03/15 12:18:09;;;;;;;;;;;;;;;9.38;69.25;101879.25;5055634;28;19917;-82
2022/03/15 12:20:43;;;;;;;;;;;;;;;9.27;69.16;101874.06;5056894;28;19960;-81
2022/03/15 12:23:21;;;;;;;;;;;;;;;9.27;70.13;101862.81;5053177;28;19998;-82
2022/03/15 12:25:52;;;;;;;;;;;;;;;9.24;71.14;101862.81;5058624;28;20030;-79
2022/03/15 12:28:24;;;;;;;;;;;;;;;9.35;70.50;101850.72;5055923;28;19921;-79
2022/03/15 12:30:53;;;;;;;;;;;;;;;9.24;71.36;101848.13;5036705;28;19920;-79
2022/03/15 12:33:26;;;;;;;;;;;;;;;9.39;70.97;101836.91;5036645;28;20332;-76
2022/03/15 12:35:57;;;;;;;;;;;;;;;9.38;71.26;101835.16;5063192;28;19994;-82
2022/03/15 12:38:31;;;;;;;;;;;;;;;9.43;70.97;101833.41;5049286;28;19920;-81
2022/03/15 12:40:56;;;;;;;;;;;;;;;9.47;69.64;101834.28;5046183;28;20347;-76
2022/03/15 12:43:22;;;;;;;;;;;;;;;9.52;70.54;101836.03;5058886;28;19963;-82
2022/03/15 12:45:48;;;;;;;;;;;;;;;9.45;70.34;101836.03;5064079;28;19917;-82